sensor_id;sensor_type;location;lat;lon;timestamp;P1;durP1;ratioP1;P2;durP2;ratioP2
35306;SDS011;21420;52.196;21.416;2023-04-25T00:01:51;16.20;;;14.10;;
35306;SDS011;21420;52.196;21.416;2023-04-25T00:04:18;14.30;;;12.80;;
35306;SDS011;21420;52.196;21.416;2023-04-25T00:06:46;15.00;;;13.20;;
35306;SDS011;21420;52.196;21.416;2023-04-25T00:09:12;17.50;;;13.70;;
35306;SDS011;21420;52.196;21.416;2023-04-25T00:11:40;15.40;;;13.80;;
35306;SDS011;21420;52.196;21.416;2023-04-25T00:14:06;16.50;;;14.20;;
35306;SDS011;21420;52.196;21.416;2023-04-25T00:16:34;17.20;;;14.30;;
35306;SDS011;21420;52.196;21.416;2023-04-25T00:19:02;16.60;;;13.70;;
35306;SDS011;21420;52.196;21.416;2023-04-25T00:21:30;16.30;;;13.80;;
35306;SDS011;21420;52.196;21.416;2023-04-25T00:23:58;16.60;;;14.90;;
35306;SDS011;21420;52.196;21.416;2023-04-25T00:26:25;20.70;;;15.00;;
35306;SDS011;21420;52.196;21.416;2023-04-25T00:28:51;16.80;;;14.60;;
35306;SDS011;21420;52.196;21.416;2023-04-25T00:31:18;14.90;;;13.40;;
35306;SDS011;21420;52.196;21.416;2023-04-25T00:33:45;17.40;;;14.80;;
35306;SDS011;21420;52.196;21.416;2023-04-25T00:36:11;16.50;;;14.00;;
35306;SDS011;21420;52.196;21.416;2023-04-25T00:38:39;15.60;;;13.80;;
35306;SDS011;21420;52.196;21.416;2023-04-25T00:41:06;18.10;;;14.50;;
35306;SDS011;21420;52.196;21.416;2023-04-25T00:43:33;19.50;;;14.00;;
35306;SDS011;21420;52.196;21.416;2023-04-25T00:46:02;17.60;;;14.30;;
35306;SDS011;21420;52.196;21.416;2023-04-25T00:48:29;18.40;;;15.00;;
35306;SDS011;21420;52.196;21.416;2023-04-25T00:50:59;19.40;;;14.30;;
35306;SDS011;21420;52.196;21.416;2023-04-25T00:55:54;17.10;;;15.30;;
35306;SDS011;21420;52.196;21.416;2023-04-25T00:58:21;17.40;;;15.40;;
35306;SDS011;21420;52.196;21.416;2023-04-25T01:00:49;19.30;;;15.30;;
35306;SDS011;21420;52.196;21.416;2023-04-25T01:08:15;20.60;;;15.40;;
35306;SDS011;21420;52.196;21.416;2023-04-25T01:10:41;16.80;;;15.10;;
35306;SDS011;21420;52.196;21.416;2023-04-25T01:13:08;18.60;;;15.70;;
35306;SDS011;21420;52.196;21.416;2023-04-25T01:15:35;17.40;;;15.60;;
35306;SDS011;21420;52.196;21.416;2023-04-25T01:18:03;18.10;;;16.30;;
35306;SDS011;21420;52.196;21.416;2023-04-25T01:20:32;17.80;;;15.50;;
35306;SDS011;21420;52.196;21.416;2023-04-25T01:23:00;18.80;;;15.50;;
35306;SDS011;21420;52.196;21.416;2023-04-25T01:25:29;17.80;;;15.50;;
35306;SDS011;21420;52.196;21.416;2023-04-25T01:27:57;19.30;;;15.70;;
35306;SDS011;21420;52.196;21.416;2023-04-25T01:30:28;17.60;;;15.80;;
35306;SDS011;21420;52.196;21.416;2023-04-25T01:32:56;18.00;;;15.50;;
35306;SDS011;21420;52.196;21.416;2023-04-25T01:35:23;17.70;;;15.70;;
35306;SDS011;21420;52.196;21.416;2023-04-25T01:37:53;18.90;;;16.80;;
35306;SDS011;21420;52.196;21.416;2023-04-25T01:40:20;18.70;;;16.30;;
35306;SDS011;21420;52.196;21.416;2023-04-25T01:42:49;18.60;;;16.70;;
35306;SDS011;21420;52.196;21.416;2023-04-25T01:45:18;17.90;;;16.10;;
35306;SDS011;21420;52.196;21.416;2023-04-25T01:47:45;20.90;;;16.60;;
35306;SDS011;21420;52.196;21.416;2023-04-25T01:50:16;19.70;;;16.60;;
35306;SDS011;21420;52.196;21.416;2023-04-25T01:52:44;19.20;;;17.30;;
35306;SDS011;21420;52.196;21.416;2023-04-25T01:55:12;19.60;;;17.20;;
35306;SDS011;21420;52.196;21.416;2023-04-25T01:57:48;19.70;;;17.70;;
35306;SDS011;21420;52.196;21.416;2023-04-25T02:00:15;20.90;;;17.40;;
35306;SDS011;21420;52.196;21.416;2023-04-25T02:02:41;19.20;;;17.10;;
35306;SDS011;21420;52.196;21.416;2023-04-25T02:05:35;19.90;;;16.70;;
35306;SDS011;21420;52.196;21.416;2023-04-25T02:08:05;19.20;;;17.30;;
35306;SDS011;21420;52.196;21.416;2023-04-25T02:10:33;22.40;;;18.20;;
35306;SDS011;21420;52.196;21.416;2023-04-25T02:13:08;19.40;;;17.40;;
35306;SDS011;21420;52.196;21.416;2023-04-25T02:19:10;21.90;;;18.10;;
35306;SDS011;21420;52.196;21.416;2023-04-25T02:21:37;21.00;;;18.00;;
35306;SDS011;21420;52.196;21.416;2023-04-25T02:24:04;19.70;;;17.70;;
35306;SDS011;21420;52.196;21.416;2023-04-25T02:26:32;20.70;;;18.60;;
35306;SDS011;21420;52.196;21.416;2023-04-25T02:28:59;21.10;;;17.90;;
35306;SDS011;21420;52.196;21.416;2023-04-25T02:31:26;22.00;;;19.10;;
35306;SDS011;21420;52.196;21.416;2023-04-25T02:33:52;19.50;;;17.50;;
35306;SDS011;21420;52.196;21.416;2023-04-25T02:36:19;21.90;;;19.50;;
35306;SDS011;21420;52.196;21.416;2023-04-25T02:38:47;22.50;;;18.80;;
35306;SDS011;21420;52.196;21.416;2023-04-25T02:41:14;24.60;;;20.10;;
35306;SDS011;21420;52.196;21.416;2023-04-25T02:43:40;20.70;;;18.60;;
35306;SDS011;21420;52.196;21.416;2023-04-25T02:46:07;24.10;;;19.80;;
35306;SDS011;21420;52.196;21.416;2023-04-25T02:48:34;19.80;;;17.80;;
35306;SDS011;21420;52.196;21.416;2023-04-25T02:51:00;20.80;;;18.60;;
35306;SDS011;21420;52.196;21.416;2023-04-25T02:53:27;20.20;;;18.10;;
35306;SDS011;21420;52.196;21.416;2023-04-25T02:55:54;22.50;;;20.10;;
35306;SDS011;21420;52.196;21.416;2023-04-25T03:00:51;22.10;;;19.80;;
35306;SDS011;21420;52.196;21.416;2023-04-25T03:03:18;20.60;;;18.40;;
35306;SDS011;21420;52.196;21.416;2023-04-25T03:05:48;20.40;;;18.10;;
35306;SDS011;21420;52.196;21.416;2023-04-25T03:08:22;20.30;;;18.10;;
35306;SDS011;21420;52.196;21.416;2023-04-25T03:10:49;21.50;;;19.00;;
35306;SDS011;21420;52.196;21.416;2023-04-25T03:13:17;21.30;;;19.00;;
35306;SDS011;21420;52.196;21.416;2023-04-25T03:15:45;22.90;;;20.00;;
35306;SDS011;21420;52.196;21.416;2023-04-25T03:18:11;22.80;;;20.50;;
35306;SDS011;21420;52.196;21.416;2023-04-25T03:20:38;24.30;;;18.50;;
35306;SDS011;21420;52.196;21.416;2023-04-25T03:23:07;21.30;;;19.10;;
35306;SDS011;21420;52.196;21.416;2023-04-25T03:25:34;22.10;;;19.70;;
35306;SDS011;21420;52.196;21.416;2023-04-25T03:28:03;27.40;;;18.90;;
35306;SDS011;21420;52.196;21.416;2023-04-25T03:30:29;21.50;;;19.40;;
35306;SDS011;21420;52.196;21.416;2023-04-25T03:32:56;25.20;;;19.60;;
35306;SDS011;21420;52.196;21.416;2023-04-25T03:35:23;21.40;;;19.10;;
35306;SDS011;21420;52.196;21.416;2023-04-25T03:37:52;21.40;;;19.20;;
35306;SDS011;21420;52.196;21.416;2023-04-25T03:40:22;22.60;;;19.90;;
35306;SDS011;21420;52.196;21.416;2023-04-25T03:43:21;22.60;;;20.20;;
35306;SDS011;21420;52.196;21.416;2023-04-25T03:45:59;22.00;;;19.70;;
35306;SDS011;21420;52.196;21.416;2023-04-25T03:48:26;25.40;;;21.60;;
35306;SDS011;21420;52.196;21.416;2023-04-25T03:50:53;22.30;;;20.00;;
35306;SDS011;21420;52.196;21.416;2023-04-25T03:53:20;28.30;;;20.40;;
35306;SDS011;21420;52.196;21.416;2023-04-25T03:56:16;23.00;;;20.10;;
35306;SDS011;21420;52.196;21.416;2023-04-25T03:58:44;23.10;;;20.60;;
35306;SDS011;21420;52.196;21.416;2023-04-25T04:01:11;22.60;;;20.10;;
35306;SDS011;21420;52.196;21.416;2023-04-25T04:03:38;23.20;;;20.60;;
35306;SDS011;21420;52.196;21.416;2023-04-25T04:06:06;23.50;;;20.10;;
35306;SDS011;21420;52.196;21.416;2023-04-25T04:08:36;22.80;;;20.30;;
35306;SDS011;21420;52.196;21.416;2023-04-25T04:11:03;22.00;;;19.70;;
35306;SDS011;21420;52.196;21.416;2023-04-25T04:13:31;22.10;;;18.70;;
35306;SDS011;21420;52.196;21.416;2023-04-25T04:15:58;20.10;;;18.10;;
35306;SDS011;21420;52.196;21.416;2023-04-25T04:18:25;21.10;;;18.90;;
35306;SDS011;21420;52.196;21.416;2023-04-25T04:20:52;19.80;;;17.70;;
35306;SDS011;21420;52.196;21.416;2023-04-25T04:23:19;22.40;;;17.30;;
35306;SDS011;21420;52.196;21.416;2023-04-25T04:25:46;20.20;;;18.10;;
35306;SDS011;21420;52.196;21.416;2023-04-25T04:28:32;19.90;;;18.00;;
35306;SDS011;21420;52.196;21.416;2023-04-25T04:31:11;22.30;;;17.60;;
35306;SDS011;21420;52.196;21.416;2023-04-25T04:33:37;21.90;;;17.40;;
35306;SDS011;21420;52.196;21.416;2023-04-25T04:36:04;18.40;;;16.50;;
35306;SDS011;21420;52.196;21.416;2023-04-25T04:38:33;17.70;;;15.60;;
35306;SDS011;21420;52.196;21.416;2023-04-25T04:41:02;18.20;;;16.40;;
35306;SDS011;21420;52.196;21.416;2023-04-25T04:43:58;18.10;;;16.30;;
35306;SDS011;21420;52.196;21.416;2023-04-25T04:46:52;16.80;;;15.20;;
35306;SDS011;21420;52.196;21.416;2023-04-25T04:49:38;18.40;;;15.80;;
35306;SDS011;21420;52.196;21.416;2023-04-25T04:52:18;15.40;;;13.80;;
35306;SDS011;21420;52.196;21.416;2023-04-25T04:54:59;17.20;;;14.40;;
35306;SDS011;21420;52.196;21.416;2023-04-25T04:57:52;16.80;;;14.20;;
35306;SDS011;21420;52.196;21.416;2023-04-25T05:00:29;16.60;;;14.60;;
35306;SDS011;21420;52.196;21.416;2023-04-25T05:03:34;17.20;;;14.50;;
35306;SDS011;21420;52.196;21.416;2023-04-25T05:06:36;14.90;;;13.40;;
35306;SDS011;21420;52.196;21.416;2023-04-25T05:09:38;18.40;;;15.70;;
35306;SDS011;21420;52.196;21.416;2023-04-25T05:12:24;15.80;;;12.90;;
35306;SDS011;21420;52.196;21.416;2023-04-25T05:15:10;16.80;;;15.00;;
35306;SDS011;21420;52.196;21.416;2023-04-25T05:17:52;12.20;;;10.90;;
35306;SDS011;21420;52.196;21.416;2023-04-25T05:20:39;18.20;;;15.80;;
35306;SDS011;21420;52.196;21.416;2023-04-25T05:23:38;14.10;;;12.70;;
35306;SDS011;21420;52.196;21.416;2023-04-25T05:26:23;13.30;;;11.80;;
35306;SDS011;21420;52.196;21.416;2023-04-25T05:29:01;10.80;;;9.60;;
35306;SDS011;21420;52.196;21.416;2023-04-25T05:31:36;11.20;;;10.00;;
35306;SDS011;21420;52.196;21.416;2023-04-25T05:34:08;12.20;;;10.40;;
35306;SDS011;21420;52.196;21.416;2023-04-25T05:36:47;11.80;;;10.70;;
35306;SDS011;21420;52.196;21.416;2023-04-25T05:39:15;14.70;;;13.30;;
35306;SDS011;21420;52.196;21.416;2023-04-25T05:42:02;13.20;;;11.90;;
35306;SDS011;21420;52.196;21.416;2023-04-25T05:44:48;12.70;;;9.60;;
35306;SDS011;21420;52.196;21.416;2023-04-25T05:47:30;12.30;;;11.00;;
35306;SDS011;21420;52.196;21.416;2023-04-25T05:50:05;10.40;;;9.40;;
35306;SDS011;21420;52.196;21.416;2023-04-25T05:53:11;10.30;;;9.40;;
35306;SDS011;21420;52.196;21.416;2023-04-25T05:55:40;9.90;;;9.00;;
35306;SDS011;21420;52.196;21.416;2023-04-25T05:58:36;11.00;;;10.00;;
35306;SDS011;21420;52.196;21.416;2023-04-25T06:01:03;10.70;;;9.70;;
35306;SDS011;21420;52.196;21.416;2023-04-25T06:03:31;8.80;;;7.90;;
35306;SDS011;21420;52.196;21.416;2023-04-25T06:05:58;10.20;;;9.20;;
35306;SDS011;21420;52.196;21.416;2023-04-25T06:08:25;7.10;;;5.60;;
35306;SDS011;21420;52.196;21.416;2023-04-25T06:10:51;7.60;;;6.80;;
35306;SDS011;21420;52.196;21.416;2023-04-25T06:13:18;8.60;;;7.70;;
35306;SDS011;21420;52.196;21.416;2023-04-25T06:15:45;9.40;;;8.20;;
35306;SDS011;21420;52.196;21.416;2023-04-25T06:18:12;9.60;;;7.30;;
35306;SDS011;21420;52.196;21.416;2023-04-25T06:20:38;9.90;;;8.20;;
35306;SDS011;21420;52.196;21.416;2023-04-25T06:23:05;11.10;;;9.20;;
35306;SDS011;21420;52.196;21.416;2023-04-25T06:25:39;10.30;;;9.40;;
35306;SDS011;21420;52.196;21.416;2023-04-25T06:28:06;12.60;;;11.50;;
35306;SDS011;21420;52.196;21.416;2023-04-25T06:30:33;9.90;;;9.00;;
35306;SDS011;21420;52.196;21.416;2023-04-25T06:33:04;10.60;;;9.60;;
35306;SDS011;21420;52.196;21.416;2023-04-25T06:35:31;10.10;;;9.10;;
35306;SDS011;21420;52.196;21.416;2023-04-25T06:37:57;9.60;;;8.00;;
35306;SDS011;21420;52.196;21.416;2023-04-25T06:40:24;11.10;;;7.80;;
35306;SDS011;21420;52.196;21.416;2023-04-25T06:42:51;12.00;;;10.70;;
35306;SDS011;21420;52.196;21.416;2023-04-25T06:45:38;11.20;;;10.30;;
35306;SDS011;21420;52.196;21.416;2023-04-25T06:48:06;11.30;;;10.20;;
35306;SDS011;21420;52.196;21.416;2023-04-25T06:50:33;9.30;;;8.40;;
35306;SDS011;21420;52.196;21.416;2023-04-25T06:53:00;7.30;;;6.60;;
35306;SDS011;21420;52.196;21.416;2023-04-25T06:55:28;7.90;;;7.10;;
35306;SDS011;21420;52.196;21.416;2023-04-25T06:58:04;7.20;;;6.50;;
35306;SDS011;21420;52.196;21.416;2023-04-25T07:01:06;7.40;;;6.70;;
35306;SDS011;21420;52.196;21.416;2023-04-25T07:03:33;7.20;;;6.40;;
35306;SDS011;21420;52.196;21.416;2023-04-25T07:06:04;6.50;;;5.90;;
35306;SDS011;21420;52.196;21.416;2023-04-25T07:08:31;8.30;;;5.90;;
35306;SDS011;21420;52.196;21.416;2023-04-25T07:10:58;8.60;;;5.50;;
35306;SDS011;21420;52.196;21.416;2023-04-25T07:13:25;10.30;;;6.50;;
35306;SDS011;21420;52.196;21.416;2023-04-25T07:15:51;7.40;;;6.60;;
35306;SDS011;21420;52.196;21.416;2023-04-25T07:18:20;5.60;;;4.70;;
35306;SDS011;21420;52.196;21.416;2023-04-25T07:20:46;7.00;;;6.10;;
35306;SDS011;21420;52.196;21.416;2023-04-25T07:23:13;6.40;;;5.80;;
35306;SDS011;21420;52.196;21.416;2023-04-25T07:25:40;6.70;;;5.60;;
35306;SDS011;21420;52.196;21.416;2023-04-25T07:28:07;6.30;;;5.20;;
35306;SDS011;21420;52.196;21.416;2023-04-25T07:30:35;6.60;;;5.30;;
35306;SDS011;21420;52.196;21.416;2023-04-25T07:33:02;4.60;;;4.10;;
35306;SDS011;21420;52.196;21.416;2023-04-25T07:35:33;6.20;;;5.60;;
35306;SDS011;21420;52.196;21.416;2023-04-25T07:37:59;6.70;;;6.10;;
35306;SDS011;21420;52.196;21.416;2023-04-25T07:40:26;7.40;;;6.70;;
35306;SDS011;21420;52.196;21.416;2023-04-25T07:42:57;6.70;;;6.10;;
35306;SDS011;21420;52.196;21.416;2023-04-25T07:45:32;7.60;;;6.10;;
35306;SDS011;21420;52.196;21.416;2023-04-25T07:47:59;6.30;;;5.70;;
35306;SDS011;21420;52.196;21.416;2023-04-25T07:50:27;6.70;;;5.30;;
35306;SDS011;21420;52.196;21.416;2023-04-25T07:52:54;10.90;;;9.30;;
35306;SDS011;21420;52.196;21.416;2023-04-25T07:55:25;5.80;;;5.00;;
35306;SDS011;21420;52.196;21.416;2023-04-25T07:58:02;5.30;;;4.90;;
35306;SDS011;21420;52.196;21.416;2023-04-25T08:00:31;6.40;;;5.90;;
35306;SDS011;21420;52.196;21.416;2023-04-25T08:03:33;6.20;;;5.70;;
35306;SDS011;21420;52.196;21.416;2023-04-25T08:06:02;6.40;;;5.80;;
35306;SDS011;21420;52.196;21.416;2023-04-25T08:08:37;5.80;;;5.10;;
35306;SDS011;21420;52.196;21.416;2023-04-25T08:11:05;6.10;;;5.50;;
35306;SDS011;21420;52.196;21.416;2023-04-25T08:13:31;6.70;;;5.90;;
35306;SDS011;21420;52.196;21.416;2023-04-25T08:15:58;6.00;;;5.50;;
35306;SDS011;21420;52.196;21.416;2023-04-25T08:18:25;5.90;;;5.50;;
35306;SDS011;21420;52.196;21.416;2023-04-25T08:20:52;5.70;;;5.30;;
35306;SDS011;21420;52.196;21.416;2023-04-25T08:23:19;6.10;;;5.40;;
35306;SDS011;21420;52.196;21.416;2023-04-25T08:25:51;6.20;;;5.60;;
35306;SDS011;21420;52.196;21.416;2023-04-25T08:28:20;6.10;;;5.50;;
35306;SDS011;21420;52.196;21.416;2023-04-25T08:30:47;5.80;;;5.30;;
35306;SDS011;21420;52.196;21.416;2023-04-25T08:33:14;6.80;;;6.20;;
35306;SDS011;21420;52.196;21.416;2023-04-25T08:35:49;7.60;;;6.90;;
35306;SDS011;21420;52.196;21.416;2023-04-25T08:38:16;9.60;;;6.00;;
35306;SDS011;21420;52.196;21.416;2023-04-25T08:40:44;7.90;;;5.80;;
35306;SDS011;21420;52.196;21.416;2023-04-25T08:43:14;5.00;;;4.00;;
35306;SDS011;21420;52.196;21.416;2023-04-25T08:45:47;4.80;;;4.40;;
35306;SDS011;21420;52.196;21.416;2023-04-25T08:48:21;5.20;;;4.80;;
35306;SDS011;21420;52.196;21.416;2023-04-25T08:50:52;5.50;;;5.00;;
35306;SDS011;21420;52.196;21.416;2023-04-25T08:53:30;5.60;;;5.20;;
35306;SDS011;21420;52.196;21.416;2023-04-25T08:56:01;4.70;;;4.40;;
35306;SDS011;21420;52.196;21.416;2023-04-25T08:58:33;4.30;;;3.90;;
35306;SDS011;21420;52.196;21.416;2023-04-25T09:01:00;6.30;;;4.20;;
35306;SDS011;21420;52.196;21.416;2023-04-25T09:03:30;4.40;;;4.10;;
35306;SDS011;21420;52.196;21.416;2023-04-25T09:05:57;4.60;;;4.30;;
35306;SDS011;21420;52.196;21.416;2023-04-25T09:08:24;5.00;;;4.60;;
35306;SDS011;21420;52.196;21.416;2023-04-25T09:10:51;5.10;;;4.70;;
35306;SDS011;21420;52.196;21.416;2023-04-25T09:13:26;4.70;;;4.20;;
35306;SDS011;21420;52.196;21.416;2023-04-25T09:16:14;4.70;;;4.20;;
35306;SDS011;21420;52.196;21.416;2023-04-25T09:18:57;5.10;;;4.70;;
35306;SDS011;21420;52.196;21.416;2023-04-25T09:21:24;6.10;;;4.70;;
35306;SDS011;21420;52.196;21.416;2023-04-25T09:23:51;7.20;;;5.60;;
35306;SDS011;21420;52.196;21.416;2023-04-25T09:26:20;5.90;;;5.40;;
35306;SDS011;21420;52.196;21.416;2023-04-25T09:28:48;7.00;;;6.20;;
35306;SDS011;21420;52.196;21.416;2023-04-25T09:31:26;8.00;;;7.30;;
35306;SDS011;21420;52.196;21.416;2023-04-25T09:33:59;8.20;;;7.40;;
35306;SDS011;21420;52.196;21.416;2023-04-25T09:36:29;9.30;;;7.90;;
35306;SDS011;21420;52.196;21.416;2023-04-25T09:39:16;8.90;;;7.60;;
35306;SDS011;21420;52.196;21.416;2023-04-25T09:41:53;7.60;;;7.00;;
35306;SDS011;21420;52.196;21.416;2023-04-25T09:44:24;8.00;;;7.30;;
35306;SDS011;21420;52.196;21.416;2023-04-25T09:46:51;7.20;;;6.60;;
35306;SDS011;21420;52.196;21.416;2023-04-25T09:49:22;9.30;;;8.50;;
35306;SDS011;21420;52.196;21.416;2023-04-25T09:52:02;8.90;;;8.20;;
35306;SDS011;21420;52.196;21.416;2023-04-25T09:54:40;10.80;;;9.70;;
35306;SDS011;21420;52.196;21.416;2023-04-25T09:57:13;9.60;;;8.80;;
35306;SDS011;21420;52.196;21.416;2023-04-25T09:59:43;9.70;;;8.80;;
35306;SDS011;21420;52.196;21.416;2023-04-25T10:02:17;7.50;;;6.90;;
35306;SDS011;21420;52.196;21.416;2023-04-25T10:04:49;8.60;;;7.60;;
35306;SDS011;21420;52.196;21.416;2023-04-25T10:07:33;7.70;;;7.10;;
35306;SDS011;21420;52.196;21.416;2023-04-25T10:10:07;8.70;;;7.90;;
35306;SDS011;21420;52.196;21.416;2023-04-25T10:12:35;6.40;;;6.00;;
35306;SDS011;21420;52.196;21.416;2023-04-25T10:15:02;9.60;;;6.30;;
35306;SDS011;21420;52.196;21.416;2023-04-25T10:17:31;8.00;;;7.30;;
35306;SDS011;21420;52.196;21.416;2023-04-25T10:19:58;6.50;;;5.90;;
35306;SDS011;21420;52.196;21.416;2023-04-25T10:25:03;8.70;;;8.00;;
35306;SDS011;21420;52.196;21.416;2023-04-25T10:27:32;8.20;;;7.50;;
35306;SDS011;21420;52.196;21.416;2023-04-25T10:30:07;10.10;;;9.30;;
35306;SDS011;21420;52.196;21.416;2023-04-25T10:32:42;8.00;;;7.40;;
35306;SDS011;21420;52.196;21.416;2023-04-25T10:37:56;9.20;;;8.30;;
35306;SDS011;21420;52.196;21.416;2023-04-25T10:40:30;9.10;;;8.30;;
35306;SDS011;21420;52.196;21.416;2023-04-25T10:48:50;9.20;;;8.00;;
35306;SDS011;21420;52.196;21.416;2023-04-25T10:54:09;10.90;;;9.80;;
35306;SDS011;21420;52.196;21.416;2023-04-25T10:59:05;8.50;;;7.80;;
35306;SDS011;21420;52.196;21.416;2023-04-25T11:01:42;7.80;;;6.70;;
35306;SDS011;21420;52.196;21.416;2023-04-25T11:07:20;8.10;;;7.40;;
35306;SDS011;21420;52.196;21.416;2023-04-25T11:10:04;8.00;;;7.30;;
35306;SDS011;21420;52.196;21.416;2023-04-25T11:12:34;7.90;;;7.20;;
35306;SDS011;21420;52.196;21.416;2023-04-25T11:15:05;6.80;;;6.30;;
35306;SDS011;21420;52.196;21.416;2023-04-25T11:17:38;11.40;;;7.90;;
35306;SDS011;21420;52.196;21.416;2023-04-25T11:20:08;8.80;;;8.10;;
35306;SDS011;21420;52.196;21.416;2023-04-25T11:22:39;8.70;;;7.20;;
35306;SDS011;21420;52.196;21.416;2023-04-25T11:25:10;8.00;;;7.20;;
35306;SDS011;21420;52.196;21.416;2023-04-25T11:27:50;13.90;;;9.60;;
35306;SDS011;21420;52.196;21.416;2023-04-25T11:30:26;11.10;;;10.20;;
35306;SDS011;21420;52.196;21.416;2023-04-25T11:32:56;9.70;;;8.90;;
35306;SDS011;21420;52.196;21.416;2023-04-25T11:35:25;9.80;;;8.90;;
35306;SDS011;21420;52.196;21.416;2023-04-25T11:37:55;10.30;;;9.20;;
35306;SDS011;21420;52.196;21.416;2023-04-25T11:40:24;11.00;;;9.90;;
35306;SDS011;21420;52.196;21.416;2023-04-25T11:42:54;7.70;;;7.10;;
35306;SDS011;21420;52.196;21.416;2023-04-25T11:45:23;13.40;;;12.20;;
35306;SDS011;21420;52.196;21.416;2023-04-25T11:47:53;15.20;;;13.80;;
35306;SDS011;21420;52.196;21.416;2023-04-25T11:50:24;13.40;;;12.10;;
35306;SDS011;21420;52.196;21.416;2023-04-25T11:52:57;16.70;;;15.20;;
35306;SDS011;21420;52.196;21.416;2023-04-25T11:55:27;15.80;;;11.40;;
35306;SDS011;21420;52.196;21.416;2023-04-25T11:58:01;15.70;;;14.20;;
35306;SDS011;21420;52.196;21.416;2023-04-25T12:07:56;11.40;;;10.30;;
35306;SDS011;21420;52.196;21.416;2023-04-25T12:10:23;11.30;;;10.40;;
35306;SDS011;21420;52.196;21.416;2023-04-25T12:12:52;10.70;;;9.70;;
35306;SDS011;21420;52.196;21.416;2023-04-25T12:15:23;11.60;;;10.40;;
35306;SDS011;21420;52.196;21.416;2023-04-25T12:17:52;10.10;;;9.20;;
35306;SDS011;21420;52.196;21.416;2023-04-25T12:20:21;8.60;;;7.70;;
35306;SDS011;21420;52.196;21.416;2023-04-25T12:22:51;10.80;;;9.90;;
35306;SDS011;21420;52.196;21.416;2023-04-25T12:28:20;9.30;;;7.80;;
35306;SDS011;21420;52.196;21.416;2023-04-25T12:31:03;8.00;;;6.10;;
35306;SDS011;21420;52.196;21.416;2023-04-25T12:33:35;7.80;;;6.90;;
35306;SDS011;21420;52.196;21.416;2023-04-25T12:36:03;6.20;;;5.40;;
35306;SDS011;21420;52.196;21.416;2023-04-25T12:38:39;6.30;;;5.60;;
35306;SDS011;21420;52.196;21.416;2023-04-25T12:41:08;6.50;;;5.80;;
35306;SDS011;21420;52.196;21.416;2023-04-25T12:43:35;5.60;;;5.10;;
35306;SDS011;21420;52.196;21.416;2023-04-25T12:46:02;8.90;;;7.30;;
35306;SDS011;21420;52.196;21.416;2023-04-25T12:48:29;10.80;;;7.50;;
35306;SDS011;21420;52.196;21.416;2023-04-25T12:50:56;6.40;;;5.70;;
35306;SDS011;21420;52.196;21.416;2023-04-25T12:53:22;5.80;;;5.10;;
35306;SDS011;21420;52.196;21.416;2023-04-25T12:55:52;5.20;;;4.70;;
35306;SDS011;21420;52.196;21.416;2023-04-25T12:58:20;4.40;;;4.00;;
35306;SDS011;21420;52.196;21.416;2023-04-25T13:00:47;5.20;;;4.60;;
35306;SDS011;21420;52.196;21.416;2023-04-25T13:03:14;5.00;;;4.60;;
35306;SDS011;21420;52.196;21.416;2023-04-25T13:05:42;5.60;;;4.40;;
35306;SDS011;21420;52.196;21.416;2023-04-25T13:08:09;7.10;;;4.80;;
35306;SDS011;21420;52.196;21.416;2023-04-25T13:10:36;5.60;;;4.50;;
35306;SDS011;21420;52.196;21.416;2023-04-25T13:13:04;6.00;;;5.40;;
35306;SDS011;21420;52.196;21.416;2023-04-25T13:15:31;6.10;;;5.40;;
35306;SDS011;21420;52.196;21.416;2023-04-25T13:17:58;5.50;;;5.00;;
35306;SDS011;21420;52.196;21.416;2023-04-25T13:20:25;7.10;;;5.20;;
35306;SDS011;21420;52.196;21.416;2023-04-25T13:22:52;5.00;;;4.60;;
35306;SDS011;21420;52.196;21.416;2023-04-25T13:25:19;5.60;;;5.10;;
35306;SDS011;21420;52.196;21.416;2023-04-25T13:27:46;6.20;;;5.70;;
35306;SDS011;21420;52.196;21.416;2023-04-25T13:30:13;6.80;;;6.10;;
35306;SDS011;21420;52.196;21.416;2023-04-25T13:32:40;11.50;;;7.80;;
35306;SDS011;21420;52.196;21.416;2023-04-25T13:35:08;12.90;;;8.70;;
35306;SDS011;21420;52.196;21.416;2023-04-25T13:37:37;6.90;;;5.80;;
35306;SDS011;21420;52.196;21.416;2023-04-25T13:40:07;6.10;;;5.60;;
35306;SDS011;21420;52.196;21.416;2023-04-25T13:42:37;6.20;;;5.70;;
35306;SDS011;21420;52.196;21.416;2023-04-25T13:45:04;7.40;;;6.50;;
35306;SDS011;21420;52.196;21.416;2023-04-25T13:47:32;7.70;;;6.00;;
35306;SDS011;21420;52.196;21.416;2023-04-25T13:49:59;9.80;;;5.40;;
35306;SDS011;21420;52.196;21.416;2023-04-25T13:52:29;6.60;;;5.90;;
35306;SDS011;21420;52.196;21.416;2023-04-25T13:54:55;5.30;;;4.90;;
35306;SDS011;21420;52.196;21.416;2023-04-25T13:57:22;7.10;;;5.70;;
35306;SDS011;21420;52.196;21.416;2023-04-25T13:59:49;8.90;;;6.00;;
35306;SDS011;21420;52.196;21.416;2023-04-25T14:02:16;6.80;;;4.30;;
35306;SDS011;21420;52.196;21.416;2023-04-25T14:04:43;5.30;;;4.80;;
35306;SDS011;21420;52.196;21.416;2023-04-25T14:07:10;6.20;;;4.30;;
35306;SDS011;21420;52.196;21.416;2023-04-25T14:09:37;6.00;;;4.50;;
35306;SDS011;21420;52.196;21.416;2023-04-25T14:12:04;5.10;;;4.30;;
35306;SDS011;21420;52.196;21.416;2023-04-25T14:14:32;4.70;;;3.90;;
35306;SDS011;21420;52.196;21.416;2023-04-25T14:16:59;4.30;;;3.90;;
35306;SDS011;21420;52.196;21.416;2023-04-25T14:19:26;6.40;;;3.70;;
35306;SDS011;21420;52.196;21.416;2023-04-25T14:21:54;5.00;;;3.40;;
35306;SDS011;21420;52.196;21.416;2023-04-25T14:24:20;4.40;;;3.60;;
35306;SDS011;21420;52.196;21.416;2023-04-25T14:26:47;3.80;;;3.30;;
35306;SDS011;21420;52.196;21.416;2023-04-25T14:29:14;4.20;;;3.40;;
35306;SDS011;21420;52.196;21.416;2023-04-25T14:31:40;7.70;;;4.60;;
35306;SDS011;21420;52.196;21.416;2023-04-25T14:34:07;6.10;;;4.00;;
35306;SDS011;21420;52.196;21.416;2023-04-25T14:36:35;6.40;;;4.50;;
35306;SDS011;21420;52.196;21.416;2023-04-25T14:39:02;6.00;;;4.10;;
35306;SDS011;21420;52.196;21.416;2023-04-25T14:41:31;5.30;;;3.90;;
35306;SDS011;21420;52.196;21.416;2023-04-25T14:43:58;5.10;;;3.30;;
35306;SDS011;21420;52.196;21.416;2023-04-25T14:46:25;4.90;;;3.40;;
35306;SDS011;21420;52.196;21.416;2023-04-25T14:48:53;3.50;;;3.20;;
35306;SDS011;21420;52.196;21.416;2023-04-25T14:51:22;3.30;;;2.60;;
35306;SDS011;21420;52.196;21.416;2023-04-25T14:53:52;3.40;;;2.60;;
35306;SDS011;21420;52.196;21.416;2023-04-25T14:56:19;4.30;;;3.20;;
35306;SDS011;21420;52.196;21.416;2023-04-25T14:58:46;6.30;;;3.90;;
35306;SDS011;21420;52.196;21.416;2023-04-25T15:01:13;3.30;;;3.00;;
35306;SDS011;21420;52.196;21.416;2023-04-25T15:03:40;5.80;;;3.60;;
35306;SDS011;21420;52.196;21.416;2023-04-25T15:06:07;5.60;;;3.30;;
35306;SDS011;21420;52.196;21.416;2023-04-25T15:08:34;4.70;;;3.40;;
35306;SDS011;21420;52.196;21.416;2023-04-25T15:11:02;3.40;;;2.60;;
35306;SDS011;21420;52.196;21.416;2023-04-25T15:13:29;3.50;;;2.60;;
35306;SDS011;21420;52.196;21.416;2023-04-25T15:15:57;3.80;;;2.40;;
35306;SDS011;21420;52.196;21.416;2023-04-25T15:18:24;3.00;;;2.70;;
35306;SDS011;21420;52.196;21.416;2023-04-25T15:20:51;5.70;;;3.90;;
35306;SDS011;21420;52.196;21.416;2023-04-25T15:23:19;5.10;;;3.90;;
35306;SDS011;21420;52.196;21.416;2023-04-25T15:25:49;4.00;;;3.60;;
35306;SDS011;21420;52.196;21.416;2023-04-25T15:28:16;4.10;;;3.70;;